Time;durP1;ratioP1;P1;durP2;ratioP2;P2;SDS_P1;SDS_P2;PMS_P1;PMS_P2;Temp;Humidity;BMP_temperature;BMP_pressure;BME280_temperature;BME280_humidity;BME280_pressure;Samples;Min_cycle;Max_cycle;Signal;HPM_P1;HPM_P2
2021/01/29 00:01:34;;;;;;;16.53;9.27;;;;;;;;;;5064884;28;20302;-65
2021/01/29 00:03:59;;;;;;;20.05;8.55;;;;;;;;;;5065555;28;20361;-66
2021/01/29 00:06:24;;;;;;;18.38;8.27;;;;;;;;;;5064709;28;20017;-66
2021/01/29 00:08:49;;;;;;;16.58;6.75;;;;;;;;;;5065604;28;20031;-66
2021/01/29 00:11:14;;;;;;;19.63;9.50;;;;;;;;;;5062997;28;20028;-66
2021/01/29 00:13:40;;;;;;;19.60;8.33;;;;;;;;;;5064997;28;20376;-66
2021/01/29 00:16:05;;;;;;;25.73;9.45;;;;;;;;;;5068918;28;20306;-66
2021/01/29 00:18:30;;;;;;;25.08;10.52;;;;;;;;;;5066047;28;20020;-66
2021/01/29 00:20:55;;;;;;;20.77;10.07;;;;;;;;;;5066849;28;20029;-65
2021/01/29 00:23:21;;;;;;;23.83;8.02;;;;;;;;;;5068695;28;20036;-66
2021/01/29 00:25:47;;;;;;;20.45;10.57;;;;;;;;;;5069253;28;20043;-66
2021/01/29 00:28:13;;;;;;;28.38;10.77;;;;;;;;;;5068105;28;20158;-66
2021/01/29 00:30:38;;;;;;;28.55;11.38;;;;;;;;;;5069107;28;20104;-66
2021/01/29 00:33:06;;;;;;;23.52;10.43;;;;;;;;;;5070327;28;20038;-66
2021/01/29 00:35:32;;;;;;;26.52;9.70;;;;;;;;;;5068172;28;20024;-65
2021/01/29 00:37:58;;;;;;;21.73;9.30;;;;;;;;;;5069164;28;20480;-66
2021/01/29 00:40:23;;;;;;;21.88;11.02;;;;;;;;;;5069755;28;20029;-66
2021/01/29 00:42:48;;;;;;;24.15;10.73;;;;;;;;;;5069267;28;20078;-65
2021/01/29 00:45:14;;;;;;;32.38;10.07;;;;;;;;;;5069120;28;20459;-65
2021/01/29 00:47:39;;;;;;;29.58;8.80;;;;;;;;;;5068418;28;20329;-66
2021/01/29 00:50:06;;;;;;;23.93;8.43;;;;;;;;;;5068963;28;20052;-66
2021/01/29 00:52:31;;;;;;;18.25;8.40;;;;;;;;;;5066537;28;20266;-66
2021/01/29 00:54:56;;;;;;;26.17;9.95;;;;;;;;;;5067307;28;20025;-66
2021/01/29 00:57:21;;;;;;;20.40;6.83;;;;;;;;;;5068571;28;20020;-65
2021/01/29 00:59:47;;;;;;;29.73;8.40;;;;;;;;;;5069113;28;20283;-66
2021/01/29 01:02:12;;;;;;;19.83;5.80;;;;;;;;;;5069273;28;20476;-66
2021/01/29 01:04:37;;;;;;;38.72;8.55;;;;;;;;;;5067736;28;20032;-66
2021/01/29 01:07:03;;;;;;;29.77;8.85;;;;;;;;;;5067727;28;20413;-66
2021/01/29 01:09:28;;;;;;;26.15;10.57;;;;;;;;;;5069138;28;20017;-66
2021/01/29 01:11:53;;;;;;;28.73;9.15;;;;;;;;;;5068227;28;20032;-66
2021/01/29 01:14:18;;;;;;;29.48;9.25;;;;;;;;;;5066820;28;20024;-65
2021/01/29 01:16:44;;;;;;;26.83;7.18;;;;;;;;;;5069464;28;20020;-65
2021/01/29 01:19:10;;;;;;;12.80;4.75;;;;;;;;;;5069079;28;20430;-66
2021/01/29 01:21:35;;;;;;;25.15;7.22;;;;;;;;;;5068693;28;20089;-65
2021/01/29 01:24:00;;;;;;;17.52;5.95;;;;;;;;;;5067881;28;20055;-66
2021/01/29 01:26:25;;;;;;;12.93;3.90;;;;;;;;;;5067023;28;20024;-66
2021/01/29 01:28:50;;;;;;;11.07;4.50;;;;;;;;;;5067673;28;20225;-65
2021/01/29 01:31:17;;;;;;;17.67;6.93;;;;;;;;;;5068585;28;20016;-66
2021/01/29 01:33:42;;;;;;;18.45;6.45;;;;;;;;;;5068254;28;20261;-66
2021/01/29 01:36:07;;;;;;;8.23;3.77;;;;;;;;;;5067612;28;20021;-66
2021/01/29 01:38:32;;;;;;;9.43;2.97;;;;;;;;;;5068712;28;20269;-66
2021/01/29 01:40:57;;;;;;;19.67;4.53;;;;;;;;;;5069403;28;20493;-66
2021/01/29 01:43:23;;;;;;;10.48;3.50;;;;;;;;;;5066727;28;20267;-66
2021/01/29 01:45:51;;;;;;;25.42;6.25;;;;;;;;;;5069245;28;20306;-66
2021/01/29 01:48:23;;;;;;;23.83;5.35;;;;;;;;;;5068389;28;20121;-66
2021/01/29 01:50:49;;;;;;;20.75;5.18;;;;;;;;;;5067584;28;20078;-66
2021/01/29 01:53:23;;;;;;;21.95;5.05;;;;;;;;;;5066675;28;20540;-66
2021/01/29 01:55:50;;;;;;;24.98;4.63;;;;;;;;;;5068960;28;20012;-66
2021/01/29 01:58:16;;;;;;;10.90;3.80;;;;;;;;;;5067536;28;20029;-66
2021/01/29 02:00:41;;;;;;;23.48;6.47;;;;;;;;;;5067239;28;20027;-66
2021/01/29 02:03:11;;;;;;;21.08;6.88;;;;;;;;;;5067438;28;20464;-66
2021/01/29 02:05:38;;;;;;;24.77;5.63;;;;;;;;;;5068184;28;20033;-66
2021/01/29 02:08:22;;;;;;;21.13;5.05;;;;;;;;;;5066666;28;20023;-66
2021/01/29 02:10:48;;;;;;;30.35;6.97;;;;;;;;;;5066455;28;20024;-66
2021/01/29 02:13:14;;;;;;;33.60;9.43;;;;;;;;;;5067239;28;20031;-66
2021/01/29 02:15:41;;;;;;;34.47;8.10;;;;;;;;;;5068102;28;20036;-66
2021/01/29 02:18:16;;;;;;;27.45;8.85;;;;;;;;;;5067203;28;20483;-66
2021/01/29 02:20:47;;;;;;;25.17;6.60;;;;;;;;;;5066250;28;20024;-66
2021/01/29 02:23:44;;;;;;;21.50;5.70;;;;;;;;;;5068803;28;20024;-66
2021/01/29 02:26:27;;;;;;;18.17;6.05;;;;;;;;;;5012150;28;20094;-66
2021/01/29 02:29:11;;;;;;;13.48;2.78;;;;;;;;;;5066703;28;20020;-66
2021/01/29 02:31:45;;;;;;;22.05;3.28;;;;;;;;;;5065292;28;20036;-66
2021/01/29 02:34:10;;;;;;;25.58;3.05;;;;;;;;;;5067009;28;20034;-66
2021/01/29 02:37:05;;;;;;;12.20;3.10;;;;;;;;;;5066848;28;20021;-66
2021/01/29 02:39:45;;;;;;;21.45;4.45;;;;;;;;;;5066900;28;20312;-67
2021/01/29 02:42:21;;;;;;;17.08;4.07;;;;;;;;;;5066305;28;20017;-66
2021/01/29 02:45:05;;;;;;;15.07;2.33;;;;;;;;;;5065549;28;20040;-66
2021/01/29 02:47:31;;;;;;;15.50;3.25;;;;;;;;;;5065704;28;20016;-67
2021/01/29 02:50:10;;;;;;;20.77;3.60;;;;;;;;;;5066956;28;20028;-66
2021/01/29 02:52:40;;;;;;;17.67;3.58;;;;;;;;;;5066240;28;20603;-66
2021/01/29 02:55:11;;;;;;;8.27;1.63;;;;;;;;;;5066741;28;20035;-66
2021/01/29 02:57:47;;;;;;;8.82;3.15;;;;;;;;;;5066163;28;20127;-66
2021/01/29 03:00:18;;;;;;;4.97;2.30;;;;;;;;;;5066825;28;20020;-66
2021/01/29 03:02:50;;;;;;;13.30;3.25;;;;;;;;;;5063997;28;20063;-66
2021/01/29 03:05:18;;;;;;;12.45;3.28;;;;;;;;;;5067409;28;20013;-67
2021/01/29 03:07:48;;;;;;;5.40;1.45;;;;;;;;;;5066021;28;20031;-66
2021/01/29 03:10:16;;;;;;;20.40;3.70;;;;;;;;;;5066575;28;20496;-67
2021/01/29 03:12:46;;;;;;;11.07;1.77;;;;;;;;;;5065435;28;20392;-66
2021/01/29 03:15:17;;;;;;;7.97;1.50;;;;;;;;;;5066501;28;20033;-66
2021/01/29 03:18:02;;;;;;;17.20;2.70;;;;;;;;;;5065886;28;20031;-66
2021/01/29 03:20:47;;;;;;;10.48;2.25;;;;;;;;;;5063205;28;20036;-66
2021/01/29 03:23:15;;;;;;;11.18;2.50;;;;;;;;;;5066538;28;20063;-66
2021/01/29 03:25:43;;;;;;;13.73;2.22;;;;;;;;;;5065840;28;20024;-67
2021/01/29 03:28:11;;;;;;;6.82;2.42;;;;;;;;;;5066563;28;20055;-66
2021/01/29 03:30:40;;;;;;;13.23;2.13;;;;;;;;;;5065948;28;20036;-67
2021/01/29 03:33:07;;;;;;;13.90;2.70;;;;;;;;;;5066794;28;20024;-66
2021/01/29 03:35:34;;;;;;;5.15;2.03;;;;;;;;;;5064660;28;20031;-66
2021/01/29 03:38:03;;;;;;;13.95;2.65;;;;;;;;;;5066312;28;20035;-67
2021/01/29 03:40:28;;;;;;;14.80;3.35;;;;;;;;;;5065181;28;20028;-66
2021/01/29 03:43:09;;;;;;;6.85;2.03;;;;;;;;;;5066245;28;20017;-66
2021/01/29 03:45:44;;;;;;;11.35;1.92;;;;;;;;;;5065721;28;20111;-66
2021/01/29 03:48:09;;;;;;;14.32;2.28;;;;;;;;;;5066268;28;20059;-66
2021/01/29 03:50:40;;;;;;;16.83;2.10;;;;;;;;;;5065624;28;20516;-66
2021/01/29 03:53:14;;;;;;;16.90;3.05;;;;;;;;;;5066497;28;20565;-66
2021/01/29 03:55:44;;;;;;;17.25;3.63;;;;;;;;;;5064255;28;20034;-66
2021/01/29 03:58:15;;;;;;;6.75;2.72;;;;;;;;;;5081564;22;20028;-66
2021/01/29 04:00:47;;;;;;;6.57;2.30;;;;;;;;;;5077945;28;20078;-66
2021/01/29 04:03:32;;;;;;;11.05;1.60;;;;;;;;;;5080363;28;20055;-66
2021/01/29 04:06:09;;;;;;;2.28;0.98;;;;;;;;;;5076634;28;20039;-66
2021/01/29 04:08:41;;;;;;;1.48;0.80;;;;;;;;;;5074904;28;20008;-66
2021/01/29 04:11:08;;;;;;;7.70;2.13;;;;;;;;;;5075256;28;20051;-66
2021/01/29 04:13:47;;;;;;;4.78;2.35;;;;;;;;;;5076560;28;20030;-65
2021/01/29 04:16:16;;;;;;;8.23;2.33;;;;;;;;;;5073033;28;20028;-66
2021/01/29 04:18:44;;;;;;;5.88;1.48;;;;;;;;;;5073636;28;20028;-66
2021/01/29 04:21:12;;;;;;;6.10;1.48;;;;;;;;;;5075010;28;20056;-66
2021/01/29 04:23:50;;;;;;;5.97;1.10;;;;;;;;;;5070684;28;20484;-66
2021/01/29 04:26:23;;;;;;;8.82;2.53;;;;;;;;;;5057684;28;20028;-66
2021/01/29 04:28:51;;;;;;;6.88;1.42;;;;;;;;;;5074035;28;20017;-66
2021/01/29 04:31:17;;;;;;;3.72;1.58;;;;;;;;;;5076228;28;20089;-66
2021/01/29 04:33:49;;;;;;;9.18;1.25;;;;;;;;;;5073488;28;20028;-66
2021/01/29 04:36:15;;;;;;;3.97;1.50;;;;;;;;;;5076381;28;20491;-67
2021/01/29 04:38:45;;;;;;;4.15;1.58;;;;;;;;;;5075522;28;20233;-66
2021/01/29 04:41:16;;;;;;;11.20;1.85;;;;;;;;;;5075711;28;20063;-67
2021/01/29 04:43:54;;;;;;;1.15;0.85;;;;;;;;;;5076740;28;20408;-66
2021/01/29 04:46:29;;;;;;;5.78;1.73;;;;;;;;;;5077860;28;20021;-67
2021/01/29 04:49:03;;;;;;;4.55;1.23;;;;;;;;;;5074883;28;20052;-66
2021/01/29 04:51:47;;;;;;;5.78;1.83;;;;;;;;;;5074046;28;20377;-67
2021/01/29 04:54:14;;;;;;;1.95;1.05;;;;;;;;;;5074997;28;20085;-67
2021/01/29 04:57:03;;;;;;;5.95;0.90;;;;;;;;;;5075322;28;20439;-66
2021/01/29 04:59:45;;;;;;;5.00;0.75;;;;;;;;;;5008746;28;20043;-66
2021/01/29 05:02:37;;;;;;;3.50;1.00;;;;;;;;;;5078522;28;20432;-66
2021/01/29 05:05:41;;;;;;;2.58;1.05;;;;;;;;;;5079478;28;20016;-66
2021/01/29 05:08:14;;;;;;;3.97;0.90;;;;;;;;;;4997471;28;20022;-66
2021/01/29 05:10:46;;;;;;;2.15;0.63;;;;;;;;;;4996883;28;20029;-67
2021/01/29 05:13:11;;;;;;;8.75;1.70;;;;;;;;;;5042878;28;20031;-66
2021/01/29 05:15:39;;;;;;;1.20;0.63;;;;;;;;;;5076919;28;20024;-66
2021/01/29 05:18:07;;;;;;;2.05;1.08;;;;;;;;;;5078116;28;20274;-66
2021/01/29 05:20:42;;;;;;;6.05;1.65;;;;;;;;;;5072753;28;20023;-66
2021/01/29 05:23:26;;;;;;;6.05;2.60;;;;;;;;;;5078851;28;20391;-66
2021/01/29 05:25:54;;;;;;;7.72;3.50;;;;;;;;;;5077280;28;20441;-66
2021/01/29 05:28:22;;;;;;;4.32;1.70;;;;;;;;;;5079010;28;20081;-66
2021/01/29 05:30:53;;;;;;;5.95;1.58;;;;;;;;;;5078838;28;20040;-66
2021/01/29 05:33:21;;;;;;;5.22;2.15;;;;;;;;;;5062275;28;20385;-66
2021/01/29 05:36:05;;;;;;;4.65;2.05;;;;;;;;;;5079250;28;20074;-67
2021/01/29 05:38:44;;;;;;;4.55;2.33;;;;;;;;;;5078379;28;20111;-66
2021/01/29 05:41:14;;;;;;;5.78;2.47;;;;;;;;;;5077896;28;20020;-66
2021/01/29 05:44:01;;;;;;;9.20;3.22;;;;;;;;;;5078221;28;20670;-66
2021/01/29 05:46:28;;;;;;;11.18;3.42;;;;;;;;;;5080282;28;20028;-65
2021/01/29 05:49:12;;;;;;;6.78;3.00;;;;;;;;;;5077372;28;20103;-66
2021/01/29 05:51:37;;;;;;;9.70;2.85;;;;;;;;;;5067338;28;20021;-66
2021/01/29 05:54:09;;;;;;;7.05;2.85;;;;;;;;;;5068419;28;20024;-66
2021/01/29 05:56:54;;;;;;;4.65;2.30;;;;;;;;;;5077369;28;20305;-67
2021/01/29 05:59:29;;;;;;;5.43;2.13;;;;;;;;;;5079998;28;20020;-66
2021/01/29 06:02:12;;;;;;;5.22;2.22;;;;;;;;;;5077433;28;20024;-66
2021/01/29 06:05:01;;;;;;;6.05;1.95;;;;;;;;;;5078418;28;20102;-66
2021/01/29 06:07:31;;;;;;;4.63;2.92;;;;;;;;;;5077727;28;20026;-66
2021/01/29 06:10:05;;;;;;;7.68;3.45;;;;;;;;;;5077108;28;20024;-66
2021/01/29 06:12:30;;;;;;;13.02;3.40;;;;;;;;;;5079835;28;20024;-66
2021/01/29 06:14:58;;;;;;;9.15;2.50;;;;;;;;;;5074889;28;20114;-66
2021/01/29 06:17:42;;;;;;;5.30;1.70;;;;;;;;;;5077436;28;20315;-66
2021/01/29 06:20:26;;;;;;;6.20;1.77;;;;;;;;;;5075879;28;20547;-66
2021/01/29 06:22:51;;;;;;;7.80;2.50;;;;;;;;;;5065250;28;20031;-65
2021/01/29 06:25:35;;;;;;;10.05;4.15;;;;;;;;;;5067657;28;20020;-66
2021/01/29 06:28:09;;;;;;;7.35;3.63;;;;;;;;;;5068577;28;20267;-66
2021/01/29 06:30:44;;;;;;;6.80;2.90;;;;;;;;;;5067869;28;20035;-66
2021/01/29 06:33:28;;;;;;;7.05;1.92;;;;;;;;;;5068133;28;20085;-66
2021/01/29 06:36:10;;;;;;;6.13;2.08;;;;;;;;;;5069463;28;20020;-66
2021/01/29 06:38:45;;;;;;;3.45;1.35;;;;;;;;;;5073499;28;20028;-66
2021/01/29 06:41:25;;;;;;;4.20;1.48;;;;;;;;;;5074765;28;20027;-66
2021/01/29 06:43:53;;;;;;;4.47;1.13;;;;;;;;;;5073058;28;20032;-66
2021/01/29 06:46:37;;;;;;;3.17;1.10;;;;;;;;;;5074286;28;20026;-68
2021/01/29 06:49:14;;;;;;;2.85;0.90;;;;;;;;;;5076315;28;20116;-67
2021/01/29 06:51:42;;;;;;;2.67;1.10;;;;;;;;;;5073626;28;20019;-66
2021/01/29 06:54:11;;;;;;;3.80;1.40;;;;;;;;;;5072559;28;20142;-66
2021/01/29 06:56:49;;;;;;;5.07;1.30;;;;;;;;;;5068475;28;20085;-68
2021/01/29 06:59:32;;;;;;;2.17;1.40;;;;;;;;;;5066838;28;20029;-66
2021/01/29 07:01:58;;;;;;;2.95;1.25;;;;;;;;;;5066467;28;20031;-66
2021/01/29 07:04:23;;;;;;;2.78;1.40;;;;;;;;;;5068014;28;20021;-66
2021/01/29 07:07:01;;;;;;;4.93;1.30;;;;;;;;;;5067498;28;20298;-66
2021/01/29 07:09:45;;;;;;;4.38;1.65;;;;;;;;;;5050106;28;20274;-66
2021/01/29 07:12:28;;;;;;;2.28;1.60;;;;;;;;;;5066939;28;20499;-66
2021/01/29 07:14:56;;;;;;;6.65;1.88;;;;;;;;;;5066920;28;20020;-66
2021/01/29 07:17:21;;;;;;;6.45;2.05;;;;;;;;;;5067201;28;20023;-66
2021/01/29 07:20:00;;;;;;;3.40;1.50;;;;;;;;;;5067487;28;20012;-66
2021/01/29 07:22:44;;;;;;;3.00;1.33;;;;;;;;;;5066970;28;20310;-66
2021/01/29 07:25:14;;;;;;;5.95;1.80;;;;;;;;;;5066932;28;20449;-66
2021/01/29 07:27:39;;;;;;;;;;;;;;;;;;5068009;28;20016;-67
2021/01/29 07:30:31;;;;;;;7.88;1.73;;;;;;;;;;5067100;28;19915;-66
2021/01/29 07:32:56;;;;;;;5.13;2.22;;;;;;;;;;5066935;28;20093;-66
2021/01/29 07:35:24;;;;;;;10.10;2.70;;;;;;;;;;5067558;28;20020;-67
2021/01/29 07:37:58;;;;;;;4.35;1.55;;;;;;;;;;5067539;28;20263;-67
2021/01/29 07:40:23;;;;;;;5.47;2.40;;;;;;;;;;5066867;28;20028;-66
2021/01/29 07:42:52;;;;;;;12.77;2.30;;;;;;;;;;5066394;28;20028;-67
2021/01/29 07:45:32;;;;;;;13.05;3.33;;;;;;;;;;5065906;28;20270;-66
2021/01/29 07:48:27;;;;;;;8.95;5.15;;;;;;;;;;5066438;28;20115;-66
2021/01/29 07:50:58;;;;;;;16.17;7.07;;;;;;;;;;5066359;28;20491;-66
2021/01/29 07:53:41;;;;;;;10.07;4.32;;;;;;;;;;5067523;28;20021;-68
2021/01/29 07:56:12;;;;;;;7.20;2.83;;;;;;;;;;5066883;28;20107;-66
2021/01/29 07:58:41;;;;;;;7.55;3.38;;;;;;;;;;5066328;28;20077;-66
2021/01/29 08:01:19;;;;;;;17.83;5.05;;;;;;;;;;5067377;28;20024;-66
2021/01/29 08:03:53;;;;;;;6.95;4.18;;;;;;;;;;5065812;28;20016;-66
2021/01/29 08:06:24;;;;;;;11.15;4.68;;;;;;;;;;5048071;28;20044;-66
2021/01/29 08:08:56;;;;;;;17.00;5.97;;;;;;;;;;5070722;28;20017;-66
2021/01/29 08:11:22;;;;;;;7.60;2.83;;;;;;;;;;5068495;28;20596;-66
2021/01/29 08:13:59;;;;;;;15.77;5.95;;;;;;;;;;5068706;28;20070;-67
2021/01/29 08:16:33;;;;;;;15.77;5.95;;;;;;;;;;5069808;28;20016;-66
2021/01/29 08:19:04;;;;;;;6.25;3.40;;;;;;;;;;5076965;28;20032;-66
2021/01/29 08:21:42;;;;;;;16.95;5.75;;;;;;;;;;5071039;28;20023;-66
2021/01/29 08:24:07;;;;;;;7.55;2.75;;;;;;;;;;5074101;28;20073;-66
2021/01/29 08:26:40;;;;;;;21.65;6.38;;;;;;;;;;5078847;28;20028;-66
2021/01/29 08:29:12;;;;;;;20.98;6.38;;;;;;;;;;5071232;28;20063;-66
2021/01/29 08:31:42;;;;;;;24.63;4.15;;;;;;;;;;5069372;28;20052;-66
2021/01/29 08:34:26;;;;;;;17.08;3.67;;;;;;;;;;5078801;28;20127;-66
2021/01/29 08:37:10;;;;;;;25.10;4.90;;;;;;;;;;5082687;28;20032;-66
2021/01/29 08:39:43;;;;;;;21.27;4.75;;;;;;;;;;5076841;28;20036;-66
2021/01/29 08:42:14;;;;;;;27.27;5.80;;;;;;;;;;5073747;28;20091;-66
2021/01/29 08:44:51;;;;;;;28.50;7.50;;;;;;;;;;5076044;28;20447;-66
2021/01/29 08:47:35;;;;;;;27.27;4.60;;;;;;;;;;5074966;28;20051;-66
2021/01/29 08:50:03;;;;;;;29.73;7.05;;;;;;;;;;5072643;28;20025;-66
2021/01/29 08:52:31;;;;;;;32.03;6.65;;;;;;;;;;5072215;28;20017;-66
2021/01/29 08:55:15;;;;;;;31.48;6.18;;;;;;;;;;5057525;28;20024;-66
2021/01/29 08:57:58;;;;;;;34.30;6.85;;;;;;;;;;5072367;28;20028;-66
2021/01/29 09:00:25;;;;;;;43.92;6.55;;;;;;;;;;5080288;28;20473;-66
2021/01/29 09:02:54;;;;;;;34.03;5.32;;;;;;;;;;5077963;28;20050;-66
2021/01/29 09:05:21;;;;;;;43.92;7.55;;;;;;;;;;5073056;28;20021;-66
2021/01/29 09:07:47;;;;;;;31.90;6.32;;;;;;;;;;5080810;28;20022;-66
2021/01/29 09:10:27;;;;;;;29.30;6.07;;;;;;;;;;5074545;28;20103;-66
2021/01/29 09:13:03;;;;;;;28.95;5.72;;;;;;;;;;5075015;28;20081;-66
2021/01/29 09:15:37;;;;;;;31.15;6.47;;;;;;;;;;5083249;28;20016;-66
2021/01/29 09:18:05;;;;;;;23.23;4.53;;;;;;;;;;5073843;28;20134;-66
2021/01/29 09:20:41;;;;;;;38.95;7.25;;;;;;;;;;5064507;28;20012;-66
2021/01/29 09:23:09;;;;;;;35.50;5.82;;;;;;;;;;5068299;28;20016;-66
2021/01/29 09:25:41;;;;;;;42.78;5.93;;;;;;;;;;5077553;28;20475;-66
2021/01/29 09:28:12;;;;;;;39.63;6.45;;;;;;;;;;5079213;28;20061;-66
2021/01/29 09:30:37;;;;;;;33.40;6.43;;;;;;;;;;5081390;28;20563;-66
2021/01/29 09:33:09;;;;;;;27.75;6.90;;;;;;;;;;5081060;28;20051;-66
2021/01/29 09:35:46;;;;;;;36.55;5.55;;;;;;;;;;5077058;28;20043;-66
2021/01/29 09:38:13;;;;;;;38.92;6.05;;;;;;;;;;5083166;28;20056;-66
2021/01/29 09:40:51;;;;;;;46.60;9.50;;;;;;;;;;5076128;28;20052;-66
2021/01/29 09:43:22;;;;;;;38.03;6.00;;;;;;;;;;5074167;28;20023;-66
2021/01/29 09:45:51;;;;;;;39.05;5.35;;;;;;;;;;5070935;28;20036;-66
2021/01/29 09:48:20;;;;;;;30.23;5.20;;;;;;;;;;5070492;28;20044;-66
2021/01/29 09:50:46;;;;;;;34.03;6.07;;;;;;;;;;5076514;28;20052;-66
2021/01/29 09:53:21;;;;;;;20.58;2.97;;;;;;;;;;5060567;28;20594;-66
2021/01/29 09:55:52;;;;;;;24.83;4.57;;;;;;;;;;5066398;28;20070;-66
2021/01/29 09:58:20;;;;;;;38.63;5.43;;;;;;;;;;5071758;28;20032;-66
2021/01/29 10:00:54;;;;;;;29.45;5.63;;;;;;;;;;5072651;28;20028;-66
2021/01/29 10:03:25;;;;;;;32.67;5.25;;;;;;;;;;5080597;28;20419;-66
2021/01/29 10:05:54;;;;;;;33.85;5.43;;;;;;;;;;5077200;28;20268;-66
2021/01/29 10:08:30;;;;;;;38.90;5.90;;;;;;;;;;5072368;28;20038;-66
2021/01/29 10:11:18;;;;;;;41.63;5.70;;;;;;;;;;5068161;28;20036;-66
2021/01/29 10:13:44;;;;;;;42.45;5.78;;;;;;;;;;5065043;28;20032;-66
2021/01/29 10:16:14;;;;;;;35.85;5.88;;;;;;;;;;5072455;28;20461;-66
2021/01/29 10:18:40;;;;;;;36.15;6.65;;;;;;;;;;5078119;28;20017;-66
2021/01/29 10:21:14;;;;;;;19.65;4.20;;;;;;;;;;5077251;28;20017;-66
2021/01/29 10:23:43;;;;;;;31.92;5.72;;;;;;;;;;5076115;28;20024;-65
2021/01/29 10:26:18;;;;;;;45.55;6.75;;;;;;;;;;5080798;28;20047;-66
2021/01/29 10:28:57;;;;;;;34.42;4.93;;;;;;;;;;5077968;28;20069;-66
2021/01/29 10:31:23;;;;;;;37.40;6.47;;;;;;;;;;5078922;28;20023;-66
2021/01/29 10:33:50;;;;;;;37.13;6.03;;;;;;;;;;5075611;28;20028;-66
2021/01/29 10:36:21;;;;;;;38.17;8.05;;;;;;;;;;5080752;28;20017;-66
2021/01/29 10:39:18;;;;;;;35.65;6.45;;;;;;;;;;5077081;28;20020;-66
2021/01/29 10:42:09;;;;;;;42.30;7.03;;;;;;;;;;5029121;28;20111;-65
2021/01/29 10:44:35;;;;;;;35.45;6.32;;;;;;;;;;5079414;28;20035;-66
2021/01/29 10:47:00;;;;;;;36.40;5.57;;;;;;;;;;5082574;28;20051;-66
2021/01/29 10:49:25;;;;;;;44.45;9.05;;;;;;;;;;5081323;28;20050;-65
2021/01/29 10:51:54;;;;;;;33.28;4.57;;;;;;;;;;5077543;28;20258;-65
2021/01/29 10:54:20;;;;;;;33.28;7.00;;;;;;;;;;5068370;28;20647;-66
2021/01/29 10:57:10;;;;;;;46.63;7.95;;;;;;;;;;5078278;28;20016;-66
2021/01/29 10:59:38;;;;;;;46.50;5.88;;;;;;;;;;5073141;28;20553;-65
2021/01/29 11:02:06;;;;;;;33.80;5.05;;;;;;;;;;5068773;28;20031;-66
2021/01/29 11:04:36;;;;;;;30.13;5.10;;;;;;;;;;5076986;28;20016;-65
2021/01/29 11:07:06;;;;;;;34.42;5.38;;;;;;;;;;5077935;28;20077;-65
2021/01/29 11:09:33;;;;;;;31.00;7.15;;;;;;;;;;5083022;28;20028;-65
2021/01/29 11:12:06;;;;;;;33.38;5.15;;;;;;;;;;5076504;28;20738;-65
2021/01/29 11:14:40;;;;;;;34.97;4.50;;;;;;;;;;5062762;28;20024;-65
2021/01/29 11:17:07;;;;;;;34.80;6.05;;;;;;;;;;5072240;28;20047;-65
2021/01/29 11:19:34;;;;;;;32.92;5.78;;;;;;;;;;5078515;28;20054;-65
2021/01/29 11:22:06;;;;;;;40.65;7.80;;;;;;;;;;5068767;28;20115;-65
2021/01/29 11:24:36;;;;;;;32.22;4.93;;;;;;;;;;5083536;28;20027;-65
2021/01/29 11:27:31;;;;;;;37.45;4.93;;;;;;;;;;5078161;28;20035;-65
2021/01/29 11:30:14;;;;;;;25.48;5.18;;;;;;;;;;5070193;28;20031;-65
2021/01/29 11:32:41;;;;;;;36.15;5.32;;;;;;;;;;5079975;28;20052;-65
2021/01/29 11:35:23;;;;;;;34.63;5.40;;;;;;;;;;5077071;28;20542;-65
2021/01/29 11:37:54;;;;;;;38.05;5.63;;;;;;;;;;5070136;28;20082;-65
2021/01/29 11:40:26;;;;;;;40.00;6.05;;;;;;;;;;5076743;28;20069;-65
2021/01/29 11:43:05;;;;;;;36.92;5.78;;;;;;;;;;5070569;28;20020;-67
2021/01/29 11:45:32;;;;;;;42.07;6.37;;;;;;;;;;5067851;28;20157;-65
2021/01/29 11:48:20;;;;;;;45.88;5.75;;;;;;;;;;5075667;28;20031;-65
2021/01/29 11:50:50;;;;;;;47.70;6.97;;;;;;;;;;5073987;28;20372;-65
2021/01/29 11:53:25;;;;;;;32.40;4.10;;;;;;;;;;5070273;28;20024;-65
2021/01/29 11:55:59;;;;;;;39.92;7.80;;;;;;;;;;5069720;28;20031;-65
2021/01/29 11:58:38;;;;;;;41.65;8.10;;;;;;;;;;5069254;28;20023;-64
2021/01/29 12:01:23;;;;;;;37.03;8.18;;;;;;;;;;5070965;28;20114;-65
2021/01/29 12:04:07;;;;;;;33.22;6.57;;;;;;;;;;5077419;28;20433;-65
2021/01/29 12:06:34;;;;;;;39.15;6.82;;;;;;;;;;5074850;28;20025;-65
2021/01/29 12:09:02;;;;;;;26.63;6.22;;;;;;;;;;5080345;28;20013;-65
2021/01/29 12:11:31;;;;;;;33.53;5.65;;;;;;;;;;5079320;28;20020;-65
2021/01/29 12:13:59;;;;;;;39.53;4.85;;;;;;;;;;5080800;28;20028;-65
2021/01/29 12:16:26;;;;;;;36.45;6.20;;;;;;;;;;5085130;28;20029;-66
2021/01/29 12:18:53;;;;;;;42.33;5.80;;;;;;;;;;5085709;28;20108;-65
2021/01/29 12:21:18;;;;;;;26.52;5.47;;;;;;;;;;5081058;28;20032;-65
2021/01/29 12:23:43;;;;;;;34.53;5.88;;;;;;;;;;5079462;28;20050;-66
2021/01/29 12:26:18;;;;;;;32.28;4.93;;;;;;;;;;5078888;28;20378;-65
2021/01/29 12:28:53;;;;;;;29.48;5.47;;;;;;;;;;5085596;28;20034;-66
2021/01/29 12:31:30;;;;;;;22.45;4.85;;;;;;;;;;5083105;28;20056;-65
2021/01/29 12:33:55;;;;;;;34.67;4.60;;;;;;;;;;5084158;28;20148;-64
2021/01/29 12:36:22;;;;;;;24.40;4.03;;;;;;;;;;5084783;28;20097;-66
2021/01/29 12:38:51;;;;;;;31.83;5.93;;;;;;;;;;5082201;28;20273;-65
2021/01/29 12:41:21;;;;;;;20.33;4.63;;;;;;;;;;5086607;28;20024;-65
2021/01/29 12:44:10;;;;;;;22.80;4.03;;;;;;;;;;5081566;28;20500;-65
2021/01/29 12:46:38;;;;;;;24.53;4.87;;;;;;;;;;5080227;28;20063;-65
2021/01/29 12:49:10;;;;;;;26.50;5.70;;;;;;;;;;5080612;28;20024;-66
2021/01/29 12:51:38;;;;;;;18.35;2.63;;;;;;;;;;5083509;28;20039;-64
2021/01/29 12:54:12;;;;;;;7.32;1.58;;;;;;;;;;5077693;28;20020;-66
2021/01/29 12:56:37;;;;;;;14.30;2.45;;;;;;;;;;5078241;28;20032;-65
2021/01/29 12:59:03;;;;;;;12.88;2.95;;;;;;;;;;5077459;28;20024;-65
2021/01/29 13:01:35;;;;;;;10.73;2.15;;;;;;;;;;5070592;28;20259;-65
2021/01/29 13:04:06;;;;;;;16.77;3.22;;;;;;;;;;5082979;28;20074;-65
2021/01/29 13:06:42;;;;;;;11.65;1.75;;;;;;;;;;5081303;28;20024;-64
2021/01/29 13:09:13;;;;;;;16.52;2.20;;;;;;;;;;5085386;28;20487;-64
2021/01/29 13:12:03;;;;;;;21.88;2.35;;;;;;;;;;5084976;28;20093;-65
2021/01/29 13:14:32;;;;;;;16.00;2.45;;;;;;;;;;5089639;28;20384;-65
2021/01/29 13:17:15;;;;;;;16.08;2.35;;;;;;;;;;5082476;28;20069;-64
2021/01/29 13:19:41;;;;;;;16.10;2.80;;;;;;;;;;5092293;28;20028;-67
2021/01/29 13:22:18;;;;;;;18.65;3.63;;;;;;;;;;5076610;28;20024;-65
2021/01/29 13:24:43;;;;;;;31.33;5.50;;;;;;;;;;5087278;28;20028;-66
2021/01/29 13:27:12;;;;;;;12.83;2.93;;;;;;;;;;5084542;28;20031;-65
2021/01/29 13:29:37;;;;;;;26.15;5.82;;;;;;;;;;5073398;28;20337;-66
2021/01/29 13:32:09;;;;;;;17.92;4.00;;;;;;;;;;5083872;28;20091;-65
2021/01/29 13:34:38;;;;;;;19.98;3.60;;;;;;;;;;5078706;28;20017;-65
2021/01/29 13:37:04;;;;;;;23.75;4.03;;;;;;;;;;5073586;28;20020;-65
2021/01/29 13:39:34;;;;;;;21.77;4.05;;;;;;;;;;5083987;28;20503;-65
2021/01/29 13:42:12;;;;;;;22.08;3.75;;;;;;;;;;5074091;28;20085;-66
2021/01/29 13:44:40;;;;;;;22.08;4.75;;;;;;;;;;5074362;28;20476;-64
2021/01/29 13:47:08;;;;;;;17.67;3.38;;;;;;;;;;5084066;28;20145;-65
2021/01/29 13:49:36;;;;;;;22.10;3.72;;;;;;;;;;5073484;28;20052;-65
2021/01/29 13:52:18;;;;;;;26.55;5.20;;;;;;;;;;5079070;28;20029;-65
2021/01/29 13:54:43;;;;;;;16.55;3.13;;;;;;;;;;5082089;28;20031;-65
2021/01/29 13:57:21;;;;;;;20.45;3.53;;;;;;;;;;5081656;28;20032;-65
2021/01/29 13:59:49;;;;;;;20.80;3.45;;;;;;;;;;5070014;28;20528;-67
2021/01/29 14:02:14;;;;;;;32.17;5.15;;;;;;;;;;5077903;28;20476;-65
2021/01/29 14:04:42;;;;;;;22.67;3.30;;;;;;;;;;5074469;28;20024;-65
2021/01/29 14:07:11;;;;;;;22.67;4.50;;;;;;;;;;5076351;28;20817;-65
2021/01/29 14:09:36;;;;;;;23.65;3.22;;;;;;;;;;5078002;28;20119;-65
2021/01/29 14:12:17;;;;;;;20.30;3.47;;;;;;;;;;5077056;28;20145;-65
2021/01/29 14:14:42;;;;;;;;;;;;;;;;;;5075951;28;20367;-65
2021/01/29 14:17:07;;;;;;;26.73;4.18;;;;;;;;;;5076172;28;19987;-65
2021/01/29 14:19:41;;;;;;;17.35;3.13;;;;;;;;;;5078155;28;20020;-65
2021/01/29 14:22:25;;;;;;;25.48;5.13;;;;;;;;;;5076864;28;20024;-65
2021/01/29 14:24:58;;;;;;;17.33;4.20;;;;;;;;;;5076275;28;20174;-65
2021/01/29 14:27:42;;;;;;;26.90;4.47;;;;;;;;;;5074900;28;20017;-65
2021/01/29 14:30:10;;;;;;;24.45;3.95;;;;;;;;;;5066803;28;20032;-66
2021/01/29 14:32:40;;;;;;;21.83;4.53;;;;;;;;;;5068129;28;20024;-66
2021/01/29 14:35:06;;;;;;;;;;;;;;;;;;5070063;28;20016;-65
2021/01/29 14:37:40;;;;;;;16.60;3.28;;;;;;;;;;5070249;28;19927;-65
2021/01/29 14:40:08;;;;;;;9.18;2.03;;;;;;;;;;5069732;28;20107;-66
2021/01/29 14:42:40;;;;;;;26.60;3.20;;;;;;;;;;5069219;28;20066;-65
2021/01/29 14:45:21;;;;;;;19.98;2.65;;;;;;;;;;5069755;28;20016;-66
2021/01/29 14:47:59;;;;;;;27.27;3.00;;;;;;;;;;5068990;28;20020;-65
2021/01/29 14:50:53;;;;;;;22.33;5.38;;;;;;;;;;5069423;28;20107;-65
2021/01/29 14:53:18;;;;;;;12.43;3.03;;;;;;;;;;5052375;28;20037;-65
2021/01/29 14:55:44;;;;;;;30.95;2.85;;;;;;;;;;5068669;28;20031;-66
2021/01/29 14:58:11;;;;;;;14.88;2.22;;;;;;;;;;5067053;28;20267;-65
2021/01/29 15:00:41;;;;;;;12.77;2.78;;;;;;;;;;5067940;28;20028;-65
2021/01/29 15:03:10;;;;;;;16.20;2.50;;;;;;;;;;5069437;28;20058;-65